This is the latest recevied weather packets stored in our database for station/object VU3KEB-1. If no packets are shown the sender has not sent any weather packets the latest 10 day(s).
| Time | Temp. | Humidity | Pressure | Rain* | Wind** | Luminosity | Snow |
|---|---|---|---|---|---|---|---|
| 1787639438 | 27.22° C | 62% | 1033.3 hPa | - | - | - | - |
| 1787638225 | 26.67° C | 65% | 1033.8 hPa | - | - | - | - |
| 1787637011 | 26.67° C | 65% | 1033.8 hPa | - | - | - | - |
| 1787635798 | 27.22° C | 65% | 1033.8 hPa | - | - | - | - |
| 1787634582 | 27.22° C | 68% | 1034.5 hPa | - | - | - | - |
| 1787633368 | 27.22° C | 68% | 1034.5 hPa | - | - | - | - |
| 1787632153 | 26.11° C | 68% | 1034.5 hPa | - | - | - | - |
| 1787630939 | 25.56° C | 75% | 1034.5 hPa | - | - | - | - |
| 1787629723 | 25° C | 75% | 1034.5 hPa | - | - | - | - |
| 1787577513 | 21.67° C | 96% | 1032.4 hPa | - | - | - | - |
| 1787576298 | 22.22° C | 95% | 1031.9 hPa | - | - | - | - |
| 1787575084 | 23.33° C | 88% | 1031.4 hPa | - | - | - | - |
| 1787573870 | 23.89° C | 88% | 1031.4 hPa | - | - | - | - |
| 1787572655 | 23.89° C | 91% | 1030.7 hPa | - | - | - | - |
| 1787571441 | 23.33° C | 91% | 1030.7 hPa | - | - | - | - |
| 1787570227 | 23.33° C | 91% | 1030.7 hPa | - | - | - | - |
| 1787569014 | 23.89° C | 92% | 1030.8 hPa | - | - | - | - |
| 1787567799 | 24.44° C | 92% | 1030.8 hPa | - | - | - | - |
| 1787566585 | 25° C | 92% | 1030.8 hPa | - | - | - | - |
| 1787565371 | 25.56° C | 86% | 1030.6 hPa | - | - | - | - |
| 1787564156 | 25° C | 86% | 1030.6 hPa | - | - | - | - |
| 1787562942 | 25° C | 86% | 1030.6 hPa | - | - | - | - |
| 1787561728 | 25° C | 87% | 1031.1 hPa | - | - | - | - |
| 1787560514 | 25° C | 87% | 1031.1 hPa | - | - | - | - |
| 1787559299 | 25° C | 84% | 1031.9 hPa | - | - | - | - |
* Rain since midnight (hover to see other rain measurements)
** Current wind speed in m/s (hover to see current wind gust speed)